sensor_id;sensor_type;location;lat;lon;timestamp;P1;durP1;ratioP1;P2;durP2;ratioP2
22904;SDS011;11619;50.140;8.518;2023-06-14T00:02:21;6.78;;;4.57;;
22904;SDS011;11619;50.140;8.518;2023-06-14T00:04:47;8.93;;;4.40;;
22904;SDS011;11619;50.140;8.518;2023-06-14T00:07:14;4.57;;;4.18;;
22904;SDS011;11619;50.140;8.518;2023-06-14T00:09:42;7.57;;;3.90;;
22904;SDS011;11619;50.140;8.518;2023-06-14T00:12:09;7.85;;;4.05;;
22904;SDS011;11619;50.140;8.518;2023-06-14T00:14:35;10.85;;;4.03;;
22904;SDS011;11619;50.140;8.518;2023-06-14T00:17:02;4.95;;;3.95;;
22904;SDS011;11619;50.140;8.518;2023-06-14T00:19:29;5.80;;;4.32;;
22904;SDS011;11619;50.140;8.518;2023-06-14T00:21:59;4.78;;;4.18;;
22904;SDS011;11619;50.140;8.518;2023-06-14T00:24:25;6.45;;;3.88;;
22904;SDS011;11619;50.140;8.518;2023-06-14T00:26:52;6.18;;;4.03;;
22904;SDS011;11619;50.140;8.518;2023-06-14T00:29:18;5.90;;;3.40;;
22904;SDS011;11619;50.140;8.518;2023-06-14T00:31:45;9.32;;;3.67;;
22904;SDS011;11619;50.140;8.518;2023-06-14T00:34:11;6.25;;;3.97;;
22904;SDS011;11619;50.140;8.518;2023-06-14T00:36:37;4.20;;;3.67;;
22904;SDS011;11619;50.140;8.518;2023-06-14T00:39:04;6.80;;;4.55;;
22904;SDS011;11619;50.140;8.518;2023-06-14T00:41:30;4.43;;;3.85;;
22904;SDS011;11619;50.140;8.518;2023-06-14T00:43:57;6.18;;;3.50;;
22904;SDS011;11619;50.140;8.518;2023-06-14T00:46:23;6.28;;;4.28;;
22904;SDS011;11619;50.140;8.518;2023-06-14T00:48:50;6.53;;;4.03;;
22904;SDS011;11619;50.140;8.518;2023-06-14T00:51:16;7.72;;;3.72;;
22904;SDS011;11619;50.140;8.518;2023-06-14T00:53:44;5.07;;;4.00;;
22904;SDS011;11619;50.140;8.518;2023-06-14T00:56:13;3.83;;;3.53;;
22904;SDS011;11619;50.140;8.518;2023-06-14T00:58:41;8.10;;;4.40;;
22904;SDS011;11619;50.140;8.518;2023-06-14T01:01:07;6.30;;;4.38;;
22904;SDS011;11619;50.140;8.518;2023-06-14T01:03:34;5.60;;;3.90;;
22904;SDS011;11619;50.140;8.518;2023-06-14T01:11:47;4.90;;;3.67;;
22904;SDS011;11619;50.140;8.518;2023-06-14T01:14:17;7.28;;;3.88;;
22904;SDS011;11619;50.140;8.518;2023-06-14T01:16:44;4.93;;;4.00;;
22904;SDS011;11619;50.140;8.518;2023-06-14T01:19:11;4.63;;;4.18;;
22904;SDS011;11619;50.140;8.518;2023-06-14T01:21:39;4.07;;;3.65;;
22904;SDS011;11619;50.140;8.518;2023-06-14T01:24:10;5.70;;;3.67;;
22904;SDS011;11619;50.140;8.518;2023-06-14T01:26:37;4.32;;;3.63;;
22904;SDS011;11619;50.140;8.518;2023-06-14T01:29:04;4.57;;;3.75;;
22904;SDS011;11619;50.140;8.518;2023-06-14T01:31:31;4.75;;;3.65;;
22904;SDS011;11619;50.140;8.518;2023-06-14T01:34:07;6.97;;;4.07;;
22904;SDS011;11619;50.140;8.518;2023-06-14T01:36:35;4.45;;;3.78;;
22904;SDS011;11619;50.140;8.518;2023-06-14T01:39:03;5.03;;;3.85;;
22904;SDS011;11619;50.140;8.518;2023-06-14T01:41:30;5.32;;;3.63;;
22904;SDS011;11619;50.140;8.518;2023-06-14T01:43:57;6.22;;;3.80;;
22904;SDS011;11619;50.140;8.518;2023-06-14T01:46:24;3.35;;;3.05;;
22904;SDS011;11619;50.140;8.518;2023-06-14T01:48:51;7.07;;;3.42;;
22904;SDS011;11619;50.140;8.518;2023-06-14T01:51:18;6.38;;;3.78;;
22904;SDS011;11619;50.140;8.518;2023-06-14T01:53:44;8.05;;;3.80;;
22904;SDS011;11619;50.140;8.518;2023-06-14T01:56:11;4.30;;;3.75;;
22904;SDS011;11619;50.140;8.518;2023-06-14T01:58:38;6.53;;;4.05;;
22904;SDS011;11619;50.140;8.518;2023-06-14T02:01:05;5.05;;;3.45;;
22904;SDS011;11619;50.140;8.518;2023-06-14T02:03:33;4.00;;;3.45;;
22904;SDS011;11619;50.140;8.518;2023-06-14T02:06:00;5.45;;;3.90;;
22904;SDS011;11619;50.140;8.518;2023-06-14T02:08:27;6.68;;;3.58;;
22904;SDS011;11619;50.140;8.518;2023-06-14T02:10:53;5.63;;;3.60;;
22904;SDS011;11619;50.140;8.518;2023-06-14T02:13:20;7.72;;;3.70;;
22904;SDS011;11619;50.140;8.518;2023-06-14T02:15:46;3.95;;;3.50;;
22904;SDS011;11619;50.140;8.518;2023-06-14T02:18:17;6.43;;;3.38;;
22904;SDS011;11619;50.140;8.518;2023-06-14T02:20:43;4.88;;;4.30;;
22904;SDS011;11619;50.140;8.518;2023-06-14T02:23:13;4.90;;;4.07;;
22904;SDS011;11619;50.140;8.518;2023-06-14T02:25:39;4.47;;;3.85;;
22904;SDS011;11619;50.140;8.518;2023-06-14T02:28:06;3.78;;;3.40;;
22904;SDS011;11619;50.140;8.518;2023-06-14T02:30:33;4.60;;;3.97;;
22904;SDS011;11619;50.140;8.518;2023-06-14T02:32:59;6.15;;;4.20;;
22904;SDS011;11619;50.140;8.518;2023-06-14T02:35:26;4.95;;;3.42;;
22904;SDS011;11619;50.140;8.518;2023-06-14T02:37:53;4.63;;;4.15;;
22904;SDS011;11619;50.140;8.518;2023-06-14T02:40:20;4.95;;;3.90;;
22904;SDS011;11619;50.140;8.518;2023-06-14T02:42:46;7.43;;;3.53;;
22904;SDS011;11619;50.140;8.518;2023-06-14T02:45:13;5.43;;;3.78;;
22904;SDS011;11619;50.140;8.518;2023-06-14T02:47:39;5.22;;;4.15;;
22904;SDS011;11619;50.140;8.518;2023-06-14T02:50:06;4.60;;;4.15;;
22904;SDS011;11619;50.140;8.518;2023-06-14T02:52:33;6.22;;;3.75;;
22904;SDS011;11619;50.140;8.518;2023-06-14T02:55:00;11.70;;;3.78;;
22904;SDS011;11619;50.140;8.518;2023-06-14T02:57:26;4.50;;;3.58;;
22904;SDS011;11619;50.140;8.518;2023-06-14T02:59:53;6.22;;;3.60;;
22904;SDS011;11619;50.140;8.518;2023-06-14T03:02:19;6.95;;;3.80;;
22904;SDS011;11619;50.140;8.518;2023-06-14T03:04:46;5.13;;;3.83;;
22904;SDS011;11619;50.140;8.518;2023-06-14T03:07:12;4.50;;;3.70;;
22904;SDS011;11619;50.140;8.518;2023-06-14T03:09:39;5.97;;;4.00;;
22904;SDS011;11619;50.140;8.518;2023-06-14T03:12:06;7.82;;;4.20;;
22904;SDS011;11619;50.140;8.518;2023-06-14T03:14:33;6.53;;;3.90;;
22904;SDS011;11619;50.140;8.518;2023-06-14T03:17:01;4.53;;;4.13;;
22904;SDS011;11619;50.140;8.518;2023-06-14T03:19:28;6.85;;;3.90;;
22904;SDS011;11619;50.140;8.518;2023-06-14T03:21:54;5.85;;;4.20;;
22904;SDS011;11619;50.140;8.518;2023-06-14T03:24:24;6.57;;;3.47;;
22904;SDS011;11619;50.140;8.518;2023-06-14T03:26:50;9.45;;;4.13;;
22904;SDS011;11619;50.140;8.518;2023-06-14T03:29:17;7.78;;;3.95;;
22904;SDS011;11619;50.140;8.518;2023-06-14T03:31:56;7.10;;;3.65;;
22904;SDS011;11619;50.140;8.518;2023-06-14T03:34:26;8.27;;;3.95;;
22904;SDS011;11619;50.140;8.518;2023-06-14T03:36:53;5.25;;;3.80;;
22904;SDS011;11619;50.140;8.518;2023-06-14T03:39:19;3.58;;;3.20;;
22904;SDS011;11619;50.140;8.518;2023-06-14T03:41:46;5.53;;;3.85;;
22904;SDS011;11619;50.140;8.518;2023-06-14T03:44:14;10.32;;;4.22;;
22904;SDS011;11619;50.140;8.518;2023-06-14T03:46:41;5.20;;;4.03;;
22904;SDS011;11619;50.140;8.518;2023-06-14T03:49:08;8.80;;;3.70;;
22904;SDS011;11619;50.140;8.518;2023-06-14T03:51:34;3.95;;;3.50;;
22904;SDS011;11619;50.140;8.518;2023-06-14T03:54:01;7.00;;;4.60;;
22904;SDS011;11619;50.140;8.518;2023-06-14T03:56:47;5.57;;;3.80;;
22904;SDS011;11619;50.140;8.518;2023-06-14T03:59:14;6.90;;;3.47;;
22904;SDS011;11619;50.140;8.518;2023-06-14T04:01:41;9.00;;;4.18;;
22904;SDS011;11619;50.140;8.518;2023-06-14T04:04:12;5.10;;;4.00;;
22904;SDS011;11619;50.140;8.518;2023-06-14T04:06:39;6.50;;;3.58;;
22904;SDS011;11619;50.140;8.518;2023-06-14T04:09:07;5.90;;;4.38;;
22904;SDS011;11619;50.140;8.518;2023-06-14T04:11:33;4.72;;;4.15;;
22904;SDS011;11619;50.140;8.518;2023-06-14T04:14:01;4.38;;;3.83;;
22904;SDS011;11619;50.140;8.518;2023-06-14T04:16:28;5.55;;;4.10;;
22904;SDS011;11619;50.140;8.518;2023-06-14T04:18:54;9.75;;;4.00;;
22904;SDS011;11619;50.140;8.518;2023-06-14T04:21:21;7.13;;;3.67;;
22904;SDS011;11619;50.140;8.518;2023-06-14T04:23:49;3.72;;;3.38;;
22904;SDS011;11619;50.140;8.518;2023-06-14T04:26:19;4.28;;;3.75;;
22904;SDS011;11619;50.140;8.518;2023-06-14T04:28:46;4.40;;;3.53;;
22904;SDS011;11619;50.140;8.518;2023-06-14T04:31:13;4.07;;;3.67;;
22904;SDS011;11619;50.140;8.518;2023-06-14T04:33:40;5.32;;;4.15;;
22904;SDS011;11619;50.140;8.518;2023-06-14T04:36:10;8.38;;;3.83;;
22904;SDS011;11619;50.140;8.518;2023-06-14T04:38:39;4.43;;;4.03;;
22904;SDS011;11619;50.140;8.518;2023-06-14T04:41:05;7.00;;;3.72;;
22904;SDS011;11619;50.140;8.518;2023-06-14T04:43:32;8.02;;;4.20;;
22904;SDS011;11619;50.140;8.518;2023-06-14T04:46:04;4.57;;;4.10;;
22904;SDS011;11619;50.140;8.518;2023-06-14T04:48:32;9.23;;;3.85;;
22904;SDS011;11619;50.140;8.518;2023-06-14T04:50:58;7.50;;;3.80;;
22904;SDS011;11619;50.140;8.518;2023-06-14T04:53:25;3.80;;;3.40;;
22904;SDS011;11619;50.140;8.518;2023-06-14T04:55:54;7.65;;;3.88;;
22904;SDS011;11619;50.140;8.518;2023-06-14T04:58:21;4.72;;;3.78;;
22904;SDS011;11619;50.140;8.518;2023-06-14T05:00:47;5.38;;;3.75;;
22904;SDS011;11619;50.140;8.518;2023-06-14T05:03:14;4.70;;;3.55;;
22904;SDS011;11619;50.140;8.518;2023-06-14T05:05:40;5.30;;;3.47;;
22904;SDS011;11619;50.140;8.518;2023-06-14T05:08:07;10.85;;;3.67;;
22904;SDS011;11619;50.140;8.518;2023-06-14T05:10:35;11.77;;;3.50;;
22904;SDS011;11619;50.140;8.518;2023-06-14T05:13:02;4.65;;;3.92;;
22904;SDS011;11619;50.140;8.518;2023-06-14T05:15:28;6.20;;;3.72;;
22904;SDS011;11619;50.140;8.518;2023-06-14T05:17:55;7.03;;;3.20;;
22904;SDS011;11619;50.140;8.518;2023-06-14T05:20:23;8.02;;;3.92;;
22904;SDS011;11619;50.140;8.518;2023-06-14T05:22:51;5.57;;;3.03;;
22904;SDS011;11619;50.140;8.518;2023-06-14T05:25:21;5.93;;;3.50;;
22904;SDS011;11619;50.140;8.518;2023-06-14T05:27:48;7.65;;;3.88;;
22904;SDS011;11619;50.140;8.518;2023-06-14T05:30:15;5.22;;;3.40;;
22904;SDS011;11619;50.140;8.518;2023-06-14T05:32:41;6.22;;;3.63;;
22904;SDS011;11619;50.140;8.518;2023-06-14T05:35:08;4.85;;;3.70;;
22904;SDS011;11619;50.140;8.518;2023-06-14T05:37:35;5.50;;;3.80;;
22904;SDS011;11619;50.140;8.518;2023-06-14T05:40:01;5.88;;;3.60;;
22904;SDS011;11619;50.140;8.518;2023-06-14T05:42:31;8.55;;;3.72;;
22904;SDS011;11619;50.140;8.518;2023-06-14T05:44:58;4.75;;;3.42;;
22904;SDS011;11619;50.140;8.518;2023-06-14T05:47:26;5.00;;;3.50;;
22904;SDS011;11619;50.140;8.518;2023-06-14T05:49:54;8.15;;;4.13;;
22904;SDS011;11619;50.140;8.518;2023-06-14T05:52:21;7.15;;;3.85;;
22904;SDS011;11619;50.140;8.518;2023-06-14T05:54:47;6.93;;;4.10;;
22904;SDS011;11619;50.140;8.518;2023-06-14T05:57:14;7.82;;;4.05;;
22904;SDS011;11619;50.140;8.518;2023-06-14T05:59:41;4.72;;;3.90;;
22904;SDS011;11619;50.140;8.518;2023-06-14T06:02:07;5.95;;;3.63;;
22904;SDS011;11619;50.140;8.518;2023-06-14T06:04:34;8.65;;;3.92;;
22904;SDS011;11619;50.140;8.518;2023-06-14T06:07:01;10.57;;;4.10;;
22904;SDS011;11619;50.140;8.518;2023-06-14T06:09:27;3.75;;;3.00;;
22904;SDS011;11619;50.140;8.518;2023-06-14T06:11:54;5.13;;;3.40;;
22904;SDS011;11619;50.140;8.518;2023-06-14T06:14:20;3.95;;;3.40;;
22904;SDS011;11619;50.140;8.518;2023-06-14T06:16:47;6.10;;;3.75;;
22904;SDS011;11619;50.140;8.518;2023-06-14T06:19:13;4.07;;;3.58;;
22904;SDS011;11619;50.140;8.518;2023-06-14T06:21:41;9.50;;;3.88;;
22904;SDS011;11619;50.140;8.518;2023-06-14T06:24:07;4.80;;;3.75;;
22904;SDS011;11619;50.140;8.518;2023-06-14T06:26:34;4.78;;;3.15;;
22904;SDS011;11619;50.140;8.518;2023-06-14T06:29:01;4.60;;;3.13;;
22904;SDS011;11619;50.140;8.518;2023-06-14T06:31:27;7.93;;;3.03;;
22904;SDS011;11619;50.140;8.518;2023-06-14T06:33:54;6.10;;;3.30;;
22904;SDS011;11619;50.140;8.518;2023-06-14T06:36:21;7.43;;;3.05;;
22904;SDS011;11619;50.140;8.518;2023-06-14T06:38:47;4.57;;;3.20;;
22904;SDS011;11619;50.140;8.518;2023-06-14T06:41:14;10.27;;;3.53;;
22904;SDS011;11619;50.140;8.518;2023-06-14T06:43:40;5.13;;;3.20;;
22904;SDS011;11619;50.140;8.518;2023-06-14T06:46:07;3.63;;;2.95;;
22904;SDS011;11619;50.140;8.518;2023-06-14T06:48:35;3.53;;;3.13;;
22904;SDS011;11619;50.140;8.518;2023-06-14T06:51:02;5.57;;;3.50;;
22904;SDS011;11619;50.140;8.518;2023-06-14T06:53:28;6.22;;;3.78;;
22904;SDS011;11619;50.140;8.518;2023-06-14T06:56:09;6.22;;;3.28;;
22904;SDS011;11619;50.140;8.518;2023-06-14T06:58:35;5.32;;;3.15;;
22904;SDS011;11619;50.140;8.518;2023-06-14T07:01:02;5.88;;;3.00;;
22904;SDS011;11619;50.140;8.518;2023-06-14T07:03:28;3.80;;;2.78;;
22904;SDS011;11619;50.140;8.518;2023-06-14T07:05:56;6.22;;;2.90;;
22904;SDS011;11619;50.140;8.518;2023-06-14T07:08:22;9.98;;;3.20;;
22904;SDS011;11619;50.140;8.518;2023-06-14T07:10:49;6.68;;;3.05;;
22904;SDS011;11619;50.140;8.518;2023-06-14T07:13:15;4.95;;;2.95;;
22904;SDS011;11619;50.140;8.518;2023-06-14T07:15:42;5.97;;;3.63;;
22904;SDS011;11619;50.140;8.518;2023-06-14T07:18:08;4.30;;;3.15;;
22904;SDS011;11619;50.140;8.518;2023-06-14T07:20:35;4.47;;;3.28;;
22904;SDS011;11619;50.140;8.518;2023-06-14T07:23:04;3.75;;;2.80;;
22904;SDS011;11619;50.140;8.518;2023-06-14T07:25:31;5.07;;;2.80;;
22904;SDS011;11619;50.140;8.518;2023-06-14T07:27:58;4.72;;;3.25;;
22904;SDS011;11619;50.140;8.518;2023-06-14T07:30:24;4.70;;;2.58;;
22904;SDS011;11619;50.140;8.518;2023-06-14T07:32:53;5.38;;;2.90;;
22904;SDS011;11619;50.140;8.518;2023-06-14T07:35:20;3.92;;;3.08;;
22904;SDS011;11619;50.140;8.518;2023-06-14T07:37:48;5.43;;;2.83;;
22904;SDS011;11619;50.140;8.518;2023-06-14T07:40:15;3.42;;;2.55;;
22904;SDS011;11619;50.140;8.518;2023-06-14T07:42:42;4.60;;;2.75;;
22904;SDS011;11619;50.140;8.518;2023-06-14T07:45:09;2.95;;;2.60;;
22904;SDS011;11619;50.140;8.518;2023-06-14T07:47:35;7.95;;;3.10;;
22904;SDS011;11619;50.140;8.518;2023-06-14T07:50:02;5.35;;;2.80;;
22904;SDS011;11619;50.140;8.518;2023-06-14T07:52:29;3.85;;;2.83;;
22904;SDS011;11619;50.140;8.518;2023-06-14T07:54:55;3.90;;;2.95;;
22904;SDS011;11619;50.140;8.518;2023-06-14T07:57:22;3.47;;;2.45;;
22904;SDS011;11619;50.140;8.518;2023-06-14T07:59:49;3.03;;;2.45;;
22904;SDS011;11619;50.140;8.518;2023-06-14T08:02:16;4.57;;;2.67;;
22904;SDS011;11619;50.140;8.518;2023-06-14T08:04:42;5.55;;;2.90;;
22904;SDS011;11619;50.140;8.518;2023-06-14T08:07:09;3.05;;;2.83;;
22904;SDS011;11619;50.140;8.518;2023-06-14T08:09:35;3.58;;;2.63;;
22904;SDS011;11619;50.140;8.518;2023-06-14T08:12:04;2.95;;;2.75;;
22904;SDS011;11619;50.140;8.518;2023-06-14T08:14:33;7.20;;;2.40;;
22904;SDS011;11619;50.140;8.518;2023-06-14T08:17:00;2.95;;;2.60;;
22904;SDS011;11619;50.140;8.518;2023-06-14T08:19:26;4.38;;;2.53;;
22904;SDS011;11619;50.140;8.518;2023-06-14T08:21:52;4.07;;;2.20;;
22904;SDS011;11619;50.140;8.518;2023-06-14T08:24:21;7.63;;;2.45;;
22904;SDS011;11619;50.140;8.518;2023-06-14T08:26:50;4.15;;;1.80;;
22904;SDS011;11619;50.140;8.518;2023-06-14T08:29:17;2.03;;;1.70;;
22904;SDS011;11619;50.140;8.518;2023-06-14T08:31:45;4.72;;;2.20;;
22904;SDS011;11619;50.140;8.518;2023-06-14T08:34:12;2.28;;;2.08;;
22904;SDS011;11619;50.140;8.518;2023-06-14T08:36:39;2.97;;;1.73;;
22904;SDS011;11619;50.140;8.518;2023-06-14T08:39:05;5.20;;;2.35;;
22904;SDS011;11619;50.140;8.518;2023-06-14T08:41:32;3.28;;;2.00;;
22904;SDS011;11619;50.140;8.518;2023-06-14T08:43:58;2.30;;;1.83;;
22904;SDS011;11619;50.140;8.518;2023-06-14T08:46:25;2.70;;;1.92;;
22904;SDS011;11619;50.140;8.518;2023-06-14T08:48:54;5.18;;;1.80;;
22904;SDS011;11619;50.140;8.518;2023-06-14T08:51:22;1.60;;;1.50;;
22904;SDS011;11619;50.140;8.518;2023-06-14T08:53:53;2.08;;;1.70;;
22904;SDS011;11619;50.140;8.518;2023-06-14T08:56:26;5.07;;;2.03;;
22904;SDS011;11619;50.140;8.518;2023-06-14T08:58:59;1.75;;;1.60;;
22904;SDS011;11619;50.140;8.518;2023-06-14T09:01:33;2.33;;;1.88;;
22904;SDS011;11619;50.140;8.518;2023-06-14T09:04:00;3.35;;;1.70;;
22904;SDS011;11619;50.140;8.518;2023-06-14T09:06:28;4.10;;;1.70;;
22904;SDS011;11619;50.140;8.518;2023-06-14T09:08:55;2.00;;;1.80;;
22904;SDS011;11619;50.140;8.518;2023-06-14T09:11:24;5.15;;;1.80;;
22904;SDS011;11619;50.140;8.518;2023-06-14T09:13:52;4.38;;;2.03;;
22904;SDS011;11619;50.140;8.518;2023-06-14T09:16:18;1.98;;;1.80;;
22904;SDS011;11619;50.140;8.518;2023-06-14T09:18:45;2.10;;;1.77;;
22904;SDS011;11619;50.140;8.518;2023-06-14T09:21:16;2.08;;;1.83;;
22904;SDS011;11619;50.140;8.518;2023-06-14T09:23:44;1.88;;;1.63;;
22904;SDS011;11619;50.140;8.518;2023-06-14T09:26:12;1.48;;;1.38;;
22904;SDS011;11619;50.140;8.518;2023-06-14T09:28:46;2.08;;;1.55;;
22904;SDS011;11619;50.140;8.518;2023-06-14T09:33:41;2.13;;;1.63;;
22904;SDS011;11619;50.140;8.518;2023-06-14T09:38:56;1.55;;;1.45;;
22904;SDS011;11619;50.140;8.518;2023-06-14T09:41:33;3.55;;;1.80;;
22904;SDS011;11619;50.140;8.518;2023-06-14T09:44:01;3.75;;;1.70;;
22904;SDS011;11619;50.140;8.518;2023-06-14T09:46:33;1.80;;;1.70;;
22904;SDS011;11619;50.140;8.518;2023-06-14T09:49:01;1.75;;;1.63;;
22904;SDS011;11619;50.140;8.518;2023-06-14T09:51:29;4.35;;;1.90;;
22904;SDS011;11619;50.140;8.518;2023-06-14T09:54:00;2.28;;;1.95;;
22904;SDS011;11619;50.140;8.518;2023-06-14T09:56:29;3.30;;;1.65;;
22904;SDS011;11619;50.140;8.518;2023-06-14T09:59:09;2.47;;;1.77;;
22904;SDS011;11619;50.140;8.518;2023-06-14T10:01:38;3.83;;;1.77;;
22904;SDS011;11619;50.140;8.518;2023-06-14T10:04:07;2.22;;;1.60;;
22904;SDS011;11619;50.140;8.518;2023-06-14T10:06:39;2.08;;;1.60;;
22904;SDS011;11619;50.140;8.518;2023-06-14T10:09:09;3.10;;;2.10;;
22904;SDS011;11619;50.140;8.518;2023-06-14T10:11:36;2.65;;;2.22;;
22904;SDS011;11619;50.140;8.518;2023-06-14T10:14:04;5.22;;;2.13;;
22904;SDS011;11619;50.140;8.518;2023-06-14T10:16:32;2.50;;;2.03;;
22904;SDS011;11619;50.140;8.518;2023-06-14T10:19:19;2.95;;;1.80;;
22904;SDS011;11619;50.140;8.518;2023-06-14T10:24:43;2.33;;;2.05;;
22904;SDS011;11619;50.140;8.518;2023-06-14T10:27:14;2.28;;;2.00;;
22904;SDS011;11619;50.140;8.518;2023-06-14T10:32:22;4.63;;;2.08;;
22904;SDS011;11619;50.140;8.518;2023-06-14T10:34:57;4.05;;;1.80;;
22904;SDS011;11619;50.140;8.518;2023-06-14T10:37:26;3.08;;;1.92;;
22904;SDS011;11619;50.140;8.518;2023-06-14T10:39:52;2.75;;;1.75;;
22904;SDS011;11619;50.140;8.518;2023-06-14T10:42:19;3.13;;;1.80;;
22904;SDS011;11619;50.140;8.518;2023-06-14T10:44:51;4.13;;;1.95;;
22904;SDS011;11619;50.140;8.518;2023-06-14T10:47:24;1.92;;;1.83;;
22904;SDS011;11619;50.140;8.518;2023-06-14T10:52:33;6.72;;;2.38;;
22904;SDS011;11619;50.140;8.518;2023-06-14T10:55:11;3.28;;;2.38;;
22904;SDS011;11619;50.140;8.518;2023-06-14T10:57:43;2.25;;;1.98;;
22904;SDS011;11619;50.140;8.518;2023-06-14T11:00:19;2.53;;;1.83;;
22904;SDS011;11619;50.140;8.518;2023-06-14T11:11:01;2.28;;;2.08;;
22904;SDS011;11619;50.140;8.518;2023-06-14T11:13:32;3.60;;;2.28;;
22904;SDS011;11619;50.140;8.518;2023-06-14T11:15:59;3.75;;;2.22;;
22904;SDS011;11619;50.140;8.518;2023-06-14T11:18:25;2.30;;;2.10;;
22904;SDS011;11619;50.140;8.518;2023-06-14T11:20:54;3.08;;;2.17;;
22904;SDS011;11619;50.140;8.518;2023-06-14T11:23:21;3.03;;;2.25;;
22904;SDS011;11619;50.140;8.518;2023-06-14T11:25:51;4.97;;;2.40;;
22904;SDS011;11619;50.140;8.518;2023-06-14T11:28:18;3.55;;;2.25;;
22904;SDS011;11619;50.140;8.518;2023-06-14T11:30:59;2.08;;;1.90;;
22904;SDS011;11619;50.140;8.518;2023-06-14T11:33:26;3.05;;;2.40;;
22904;SDS011;11619;50.140;8.518;2023-06-14T11:35:52;2.22;;;2.03;;
22904;SDS011;11619;50.140;8.518;2023-06-14T11:38:19;5.05;;;2.35;;
22904;SDS011;11619;50.140;8.518;2023-06-14T11:40:45;4.15;;;2.08;;
22904;SDS011;11619;50.140;8.518;2023-06-14T11:43:12;5.45;;;1.85;;
22904;SDS011;11619;50.140;8.518;2023-06-14T11:45:40;4.43;;;2.03;;
22904;SDS011;11619;50.140;8.518;2023-06-14T11:48:06;2.47;;;2.20;;
22904;SDS011;11619;50.140;8.518;2023-06-14T11:50:33;4.43;;;3.03;;
22904;SDS011;11619;50.140;8.518;2023-06-14T11:53:03;5.00;;;2.67;;
22904;SDS011;11619;50.140;8.518;2023-06-14T11:55:37;2.00;;;1.77;;
22904;SDS011;11619;50.140;8.518;2023-06-14T11:58:05;2.35;;;1.85;;
22904;SDS011;11619;50.140;8.518;2023-06-14T12:00:32;2.72;;;2.40;;
22904;SDS011;11619;50.140;8.518;2023-06-14T12:02:58;2.78;;;2.00;;
22904;SDS011;11619;50.140;8.518;2023-06-14T12:05:25;2.38;;;1.98;;
22904;SDS011;11619;50.140;8.518;2023-06-14T12:07:58;13.10;;;5.97;;
22904;SDS011;11619;50.140;8.518;2023-06-14T12:10:26;5.40;;;3.00;;
22904;SDS011;11619;50.140;8.518;2023-06-14T12:12:56;2.53;;;2.00;;
22904;SDS011;11619;50.140;8.518;2023-06-14T12:15:24;3.63;;;1.98;;
22904;SDS011;11619;50.140;8.518;2023-06-14T12:17:54;1.80;;;1.70;;
22904;SDS011;11619;50.140;8.518;2023-06-14T12:20:21;2.05;;;1.90;;
22904;SDS011;11619;50.140;8.518;2023-06-14T12:22:53;3.08;;;1.90;;
22904;SDS011;11619;50.140;8.518;2023-06-14T12:27:54;2.25;;;1.80;;
22904;SDS011;11619;50.140;8.518;2023-06-14T12:30:21;3.53;;;1.90;;
22904;SDS011;11619;50.140;8.518;2023-06-14T12:32:48;2.85;;;1.77;;
22904;SDS011;11619;50.140;8.518;2023-06-14T12:35:14;2.00;;;1.80;;
22904;SDS011;11619;50.140;8.518;2023-06-14T12:37:42;2.30;;;1.80;;
22904;SDS011;11619;50.140;8.518;2023-06-14T12:40:08;3.90;;;2.22;;
22904;SDS011;11619;50.140;8.518;2023-06-14T12:42:35;2.97;;;1.92;;
22904;SDS011;11619;50.140;8.518;2023-06-14T12:45:02;3.97;;;2.05;;
22904;SDS011;11619;50.140;8.518;2023-06-14T12:47:29;2.00;;;1.80;;
22904;SDS011;11619;50.140;8.518;2023-06-14T12:49:55;3.45;;;1.92;;
22904;SDS011;11619;50.140;8.518;2023-06-14T12:52:22;4.20;;;2.28;;
22904;SDS011;11619;50.140;8.518;2023-06-14T12:54:49;3.60;;;2.05;;
22904;SDS011;11619;50.140;8.518;2023-06-14T12:57:16;2.05;;;1.90;;
22904;SDS011;11619;50.140;8.518;2023-06-14T12:59:42;2.35;;;2.03;;
22904;SDS011;11619;50.140;8.518;2023-06-14T13:02:16;4.00;;;2.30;;
22904;SDS011;11619;50.140;8.518;2023-06-14T13:04:43;4.35;;;1.90;;
22904;SDS011;11619;50.140;8.518;2023-06-14T13:07:10;3.30;;;2.22;;
22904;SDS011;11619;50.140;8.518;2023-06-14T13:09:37;2.50;;;2.10;;
22904;SDS011;11619;50.140;8.518;2023-06-14T13:12:03;2.90;;;2.33;;
22904;SDS011;11619;50.140;8.518;2023-06-14T13:14:31;2.97;;;2.40;;
22904;SDS011;11619;50.140;8.518;2023-06-14T13:16:58;2.35;;;2.15;;
22904;SDS011;11619;50.140;8.518;2023-06-14T13:19:25;2.30;;;2.10;;
22904;SDS011;11619;50.140;8.518;2023-06-14T13:21:51;2.75;;;2.28;;
22904;SDS011;11619;50.140;8.518;2023-06-14T13:24:18;3.38;;;2.00;;
22904;SDS011;11619;50.140;8.518;2023-06-14T13:26:44;2.10;;;1.90;;
22904;SDS011;11619;50.140;8.518;2023-06-14T13:29:11;3.53;;;2.30;;
22904;SDS011;11619;50.140;8.518;2023-06-14T13:31:37;2.30;;;1.95;;
22904;SDS011;11619;50.140;8.518;2023-06-14T13:34:04;2.88;;;2.13;;
22904;SDS011;11619;50.140;8.518;2023-06-14T13:36:31;3.78;;;2.20;;
22904;SDS011;11619;50.140;8.518;2023-06-14T13:38:58;4.18;;;2.15;;
22904;SDS011;11619;50.140;8.518;2023-06-14T13:41:25;6.07;;;2.28;;
22904;SDS011;11619;50.140;8.518;2023-06-14T13:43:58;3.90;;;2.22;;
22904;SDS011;11619;50.140;8.518;2023-06-14T13:46:42;4.03;;;2.08;;
22904;SDS011;11619;50.140;8.518;2023-06-14T13:49:09;3.53;;;2.22;;
22904;SDS011;11619;50.140;8.518;2023-06-14T13:51:54;2.33;;;2.13;;
22904;SDS011;11619;50.140;8.518;2023-06-14T13:54:20;3.63;;;2.03;;
22904;SDS011;11619;50.140;8.518;2023-06-14T13:59:50;2.38;;;2.13;;
22904;SDS011;11619;50.140;8.518;2023-06-14T14:02:34;6.68;;;2.22;;
22904;SDS011;11619;50.140;8.518;2023-06-14T14:05:18;2.63;;;2.08;;
22904;SDS011;11619;50.140;8.518;2023-06-14T14:07:46;5.90;;;1.90;;
22904;SDS011;11619;50.140;8.518;2023-06-14T14:10:13;2.10;;;1.98;;
22904;SDS011;11619;50.140;8.518;2023-06-14T14:12:40;2.25;;;2.05;;
22904;SDS011;11619;50.140;8.518;2023-06-14T14:15:24;3.10;;;1.83;;
22904;SDS011;11619;50.140;8.518;2023-06-14T14:18:08;4.30;;;2.22;;
22904;SDS011;11619;50.140;8.518;2023-06-14T14:20:52;5.90;;;2.22;;
22904;SDS011;11619;50.140;8.518;2023-06-14T14:23:19;2.20;;;2.00;;
22904;SDS011;11619;50.140;8.518;2023-06-14T14:25:46;2.20;;;2.00;;
22904;SDS011;11619;50.140;8.518;2023-06-14T14:28:31;2.38;;;2.17;;
22904;SDS011;11619;50.140;8.518;2023-06-14T14:30:58;2.00;;;1.90;;
22904;SDS011;11619;50.140;8.518;2023-06-14T14:33:25;11.82;;;2.40;;
22904;SDS011;11619;50.140;8.518;2023-06-14T14:35:52;3.78;;;2.03;;
22904;SDS011;11619;50.140;8.518;2023-06-14T14:38:18;3.17;;;2.25;;
22904;SDS011;11619;50.140;8.518;2023-06-14T14:40:45;4.65;;;2.28;;
22904;SDS011;11619;50.140;8.518;2023-06-14T14:43:11;2.92;;;2.13;;
22904;SDS011;11619;50.140;8.518;2023-06-14T14:45:38;5.32;;;2.15;;
22904;SDS011;11619;50.140;8.518;2023-06-14T14:48:04;3.25;;;1.88;;
22904;SDS011;11619;50.140;8.518;2023-06-14T14:50:32;3.38;;;2.20;;
22904;SDS011;11619;50.140;8.518;2023-06-14T14:52:59;3.25;;;2.00;;
22904;SDS011;11619;50.140;8.518;2023-06-14T14:55:25;2.15;;;1.95;;
22904;SDS011;11619;50.140;8.518;2023-06-14T14:57:52;2.38;;;2.08;;
22904;SDS011;11619;50.140;8.518;2023-06-14T15:00:18;5.03;;;2.00;;
22904;SDS011;11619;50.140;8.518;2023-06-14T15:02:45;2.53;;;2.10;;
22904;SDS011;11619;50.140;8.518;2023-06-14T15:05:11;2.40;;;2.20;;
22904;SDS011;11619;50.140;8.518;2023-06-14T15:07:39;2.10;;;1.92;;
22904;SDS011;11619;50.140;8.518;2023-06-14T15:10:06;2.90;;;2.35;;
22904;SDS011;11619;50.140;8.518;2023-06-14T15:12:33;4.22;;;2.58;;
22904;SDS011;11619;50.140;8.518;2023-06-14T15:15:00;2.30;;;2.10;;
22904;SDS011;11619;50.140;8.518;2023-06-14T15:17:27;3.05;;;2.30;;
22904;SDS011;11619;50.140;8.518;2023-06-14T15:19:54;4.68;;;2.50;;
22904;SDS011;11619;50.140;8.518;2023-06-14T15:22:20;3.17;;;2.53;;
22904;SDS011;11619;50.140;8.518;2023-06-14T15:24:47;3.13;;;2.00;;
22904;SDS011;11619;50.140;8.518;2023-06-14T15:27:15;3.90;;;2.25;;